createdAt,value
2019-03-08T00:00:39.051Z,1.70
2019-03-08T00:01:39.275Z,1.70
2019-03-08T00:02:39.499Z,1.70
2019-03-08T00:03:39.723Z,1.60
2019-03-08T00:04:39.947Z,1.90
2019-03-08T00:05:40.169Z,2.40
2019-03-08T00:06:40.393Z,2.20
2019-03-08T00:07:40.615Z,1.70
2019-03-08T00:08:40.840Z,1.70
2019-03-08T00:09:41.063Z,1.60
2019-03-08T00:10:41.289Z,1.80
2019-03-08T00:11:41.510Z,2.00
2019-03-08T00:12:41.732Z,1.90
2019-03-08T00:13:41.956Z,1.90
2019-03-08T00:14:42.177Z,1.90
2019-03-08T00:15:42.403Z,1.50
2019-03-08T00:16:42.624Z,1.90
2019-03-08T00:17:42.846Z,1.60
2019-03-08T00:18:43.070Z,1.60
2019-03-08T00:19:43.294Z,1.80
2019-03-08T00:20:43.518Z,1.70
2019-03-08T00:21:43.741Z,1.80
2019-03-08T00:22:43.965Z,1.50
2019-03-08T00:23:44.190Z,1.50
2019-03-08T00:24:44.411Z,1.60
2019-03-08T00:25:44.637Z,1.40
2019-03-08T00:26:44.861Z,1.50
2019-03-08T00:27:45.087Z,1.50
2019-03-08T00:28:45.310Z,1.70
2019-03-08T00:29:45.533Z,1.60
2019-03-08T00:30:45.759Z,1.40
2019-03-08T00:31:45.979Z,1.30
2019-03-08T00:32:46.202Z,1.80
2019-03-08T00:33:46.425Z,1.50
2019-03-08T00:34:46.651Z,1.40
2019-03-08T00:35:46.873Z,1.50
2019-03-08T00:36:47.099Z,1.50
2019-03-08T00:37:47.322Z,1.60
2019-03-08T00:38:47.558Z,1.50
2019-03-08T00:39:47.768Z,1.50
2019-03-08T00:40:47.991Z,1.70
2019-03-08T00:41:48.220Z,1.40
2019-03-08T00:42:48.440Z,1.60
2019-03-08T00:43:48.663Z,1.60
2019-03-08T00:44:48.888Z,1.80
2019-03-08T00:45:49.114Z,1.60
2019-03-08T00:46:49.337Z,1.80
2019-03-08T00:47:49.558Z,1.70
2019-03-08T00:48:49.783Z,1.70
2019-03-08T00:49:50.005Z,1.50
2019-03-08T00:50:50.227Z,1.80
2019-03-08T00:51:50.479Z,1.70
2019-03-08T00:52:50.675Z,1.60
2019-03-08T00:53:50.898Z,1.60
2019-03-08T00:54:51.121Z,1.70
2019-03-08T00:55:51.345Z,1.70
2019-03-08T00:56:51.565Z,1.40
2019-03-08T00:57:51.790Z,1.70
2019-03-08T00:58:52.012Z,1.90
2019-03-08T00:59:52.235Z,1.40
2019-03-08T01:00:52.461Z,1.70
2019-03-08T01:01:52.684Z,1.30
2019-03-08T01:02:52.907Z,1.90
2019-03-08T01:03:53.135Z,1.60
2019-03-08T01:04:53.363Z,1.70
2019-03-08T01:05:53.585Z,1.40
2019-03-08T01:06:53.808Z,2.10
2019-03-08T01:07:54.033Z,1.60
2019-03-08T01:08:54.257Z,1.50
2019-03-08T01:09:54.480Z,1.50
2019-03-08T01:10:54.706Z,1.70
2019-03-08T01:11:54.930Z,1.50
2019-03-08T01:12:55.154Z,1.80
2019-03-08T01:13:55.379Z,1.60
2019-03-08T01:14:55.601Z,1.90
2019-03-08T01:15:55.826Z,1.50
2019-03-08T01:16:56.048Z,2.00
2019-03-08T01:17:56.271Z,1.40
2019-03-08T01:18:56.498Z,1.60
2019-03-08T01:19:56.718Z,1.50
2019-03-08T01:20:56.945Z,1.50
2019-03-08T01:21:57.165Z,1.70
2019-03-08T01:22:57.387Z,1.70
2019-03-08T01:23:57.609Z,1.60
2019-03-08T01:24:57.833Z,1.70
2019-03-08T01:25:58.057Z,1.60
2019-03-08T01:26:58.286Z,2.00
2019-03-08T01:27:58.510Z,1.60
2019-03-08T01:28:58.740Z,1.60
2019-03-08T01:29:58.956Z,1.60
2019-03-08T01:30:59.183Z,1.50
2019-03-08T01:31:59.406Z,1.60
2019-03-08T01:32:59.626Z,1.60
2019-03-08T01:33:59.849Z,1.70
2019-03-08T01:35:00.073Z,1.50
2019-03-08T01:36:00.296Z,1.70
2019-03-08T01:37:00.520Z,1.50
2019-03-08T01:38:00.748Z,1.80
2019-03-08T01:39:00.970Z,1.70
2019-03-08T01:40:01.192Z,1.50
2019-03-08T01:41:01.413Z,1.90
2019-03-08T01:42:01.636Z,1.50
2019-03-08T01:43:01.859Z,1.60
2019-03-08T01:44:02.085Z,1.60
2019-03-08T01:45:03.773Z,1.50
2019-03-08T01:46:02.528Z,1.40
2019-03-08T01:47:02.754Z,1.60
2019-03-08T01:48:02.977Z,1.60
2019-03-08T01:49:03.204Z,1.60
2019-03-08T01:50:03.423Z,1.50
2019-03-08T01:51:03.645Z,1.50
2019-03-08T01:52:03.866Z,1.60
2019-03-08T01:53:04.090Z,1.60
2019-03-08T01:54:04.311Z,1.70
2019-03-08T01:55:04.538Z,1.80
2019-03-08T01:56:04.760Z,1.80
2019-03-08T01:57:04.984Z,1.60
2019-03-08T01:58:05.207Z,1.50
2019-03-08T01:59:05.429Z,1.40
2019-03-08T02:00:05.653Z,1.40
2019-03-08T02:01:05.874Z,2.00
2019-03-08T02:02:06.099Z,1.80
2019-03-08T02:03:06.323Z,1.60
2019-03-08T02:04:06.546Z,1.80
2019-03-08T02:05:06.774Z,1.50
2019-03-08T02:06:06.996Z,1.50
2019-03-08T02:07:07.218Z,1.90
2019-03-08T02:08:07.439Z,2.00
2019-03-08T02:09:07.664Z,1.80
2019-03-08T02:10:07.887Z,1.90
2019-03-08T02:11:08.112Z,1.80
2019-03-08T02:12:08.336Z,1.70
2019-03-08T02:13:08.557Z,1.50
2019-03-08T02:14:08.784Z,1.80
2019-03-08T02:15:09.005Z,1.80
2019-03-08T02:16:09.227Z,2.40
2019-03-08T02:17:09.449Z,1.80
2019-03-08T02:18:09.673Z,1.80
2019-03-08T02:19:09.898Z,1.90
2019-03-08T02:20:10.118Z,1.80
2019-03-08T02:21:10.341Z,1.70
2019-03-08T02:22:10.567Z,1.70
2019-03-08T02:23:10.787Z,1.70
2019-03-08T02:24:11.012Z,1.70
2019-03-08T02:25:11.233Z,2.10
2019-03-08T02:26:11.459Z,2.00
2019-03-08T02:27:11.680Z,2.10
2019-03-08T02:28:11.906Z,2.00
2019-03-08T02:29:12.126Z,1.90
2019-03-08T02:30:12.634Z,1.80
2019-03-08T02:31:12.620Z,2.10
2019-03-08T02:32:12.842Z,2.00
2019-03-08T02:33:13.064Z,1.50
2019-03-08T02:34:13.287Z,1.80
2019-03-08T02:35:13.512Z,1.90
2019-03-08T02:36:13.734Z,1.90
2019-03-08T02:37:13.955Z,2.00
2019-03-08T02:38:14.177Z,2.00
2019-03-08T02:39:14.402Z,2.00
2019-03-08T02:40:14.625Z,2.00
2019-03-08T02:41:14.849Z,1.60
2019-03-08T02:42:15.072Z,2.10
2019-03-08T02:43:15.295Z,1.70
2019-03-08T02:44:15.521Z,1.80
2019-03-08T02:45:15.741Z,2.00
2019-03-08T02:46:15.962Z,2.00
2019-03-08T02:47:16.183Z,1.70
2019-03-08T02:48:16.409Z,2.20
2019-03-08T02:49:16.631Z,2.00
2019-03-08T02:50:16.856Z,1.70
2019-03-08T02:51:17.081Z,2.00
2019-03-08T02:52:17.307Z,1.80
2019-03-08T02:53:17.529Z,2.10
2019-03-08T02:54:17.753Z,1.90
2019-03-08T02:55:17.979Z,2.50
2019-03-08T02:56:18.198Z,1.80
2019-03-08T02:57:18.422Z,1.80
2019-03-08T02:58:18.644Z,1.80
2019-03-08T02:59:18.869Z,1.90
2019-03-08T03:00:19.240Z,1.90
2019-03-08T03:01:19.285Z,2.00
2019-03-08T03:02:19.491Z,2.00
2019-03-08T03:03:19.715Z,2.30
2019-03-08T03:04:19.939Z,1.80
2019-03-08T03:05:20.166Z,1.90
2019-03-08T03:06:20.385Z,1.70
2019-03-08T03:07:20.614Z,2.00
2019-03-08T03:08:20.830Z,1.90
2019-03-08T03:09:21.055Z,1.90
2019-03-08T03:10:21.276Z,1.60
2019-03-08T03:11:21.500Z,2.20
2019-03-08T03:12:21.725Z,1.70
2019-03-08T03:13:21.950Z,1.60
2019-03-08T03:14:22.175Z,1.60
2019-03-08T03:15:22.398Z,1.60
2019-03-08T03:16:22.621Z,1.60
2019-03-08T03:17:22.843Z,1.70
2019-03-08T03:18:23.065Z,1.40
2019-03-08T03:19:23.287Z,1.70
2019-03-08T03:20:23.512Z,1.80
2019-03-08T03:21:23.736Z,1.50
2019-03-08T03:22:23.962Z,1.60
2019-03-08T03:23:24.184Z,1.70
2019-03-08T03:24:24.411Z,1.50
2019-03-08T03:25:24.632Z,1.50
2019-03-08T03:26:24.854Z,1.50
2019-03-08T03:27:25.077Z,1.90
2019-03-08T03:28:25.303Z,1.50
2019-03-08T03:29:25.527Z,1.80
2019-03-08T03:30:25.750Z,1.70
2019-03-08T03:31:25.977Z,1.50
2019-03-08T03:32:26.200Z,1.90
2019-03-08T03:33:26.422Z,1.40
2019-03-08T03:34:26.645Z,1.40
2019-03-08T03:35:26.871Z,1.80
2019-03-08T03:36:27.091Z,1.70
2019-03-08T03:37:27.317Z,1.60
2019-03-08T03:38:27.537Z,1.60
2019-03-08T03:39:27.762Z,1.50
2019-03-08T03:40:27.984Z,1.50
2019-03-08T03:41:28.208Z,1.50
2019-03-08T03:42:28.430Z,1.60
2019-03-08T03:43:28.655Z,1.60
2019-03-08T03:44:28.878Z,1.50
2019-03-08T03:45:29.103Z,1.60
2019-03-08T03:46:29.328Z,1.80
2019-03-08T03:47:29.552Z,1.80
2019-03-08T03:48:29.778Z,1.50
2019-03-08T03:49:30.001Z,2.00
2019-03-08T03:50:30.226Z,1.50
2019-03-08T03:51:30.452Z,1.60
2019-03-08T03:52:30.674Z,1.60
2019-03-08T03:53:30.897Z,1.70
2019-03-08T03:54:31.119Z,1.60
2019-03-08T03:55:31.342Z,1.60
2019-03-08T03:56:31.566Z,1.70
2019-03-08T03:57:31.793Z,1.90
2019-03-08T03:58:32.013Z,1.80
2019-03-08T03:59:32.235Z,1.80
2019-03-08T04:00:32.459Z,1.50
2019-03-08T04:01:32.685Z,1.30
2019-03-08T04:02:32.907Z,1.50
2019-03-08T04:03:33.130Z,2.10
2019-03-08T04:04:33.354Z,1.50
2019-03-08T04:05:33.581Z,1.40
2019-03-08T04:06:33.804Z,1.60
2019-03-08T04:07:34.025Z,1.60
2019-03-08T04:08:34.251Z,1.50
2019-03-08T04:09:34.472Z,1.70
2019-03-08T04:10:34.697Z,1.50
2019-03-08T04:11:34.918Z,1.70
2019-03-08T04:12:35.144Z,1.90
2019-03-08T04:13:35.365Z,1.40
2019-03-08T04:14:35.588Z,1.70
2019-03-08T04:15:35.813Z,1.30
2019-03-08T04:16:36.036Z,1.70
2019-03-08T04:17:36.257Z,1.70
2019-03-08T04:18:36.484Z,1.40
2019-03-08T04:19:36.703Z,1.50
2019-03-08T04:20:36.927Z,1.80
2019-03-08T04:21:37.149Z,1.40
2019-03-08T04:22:37.376Z,1.30
2019-03-08T04:23:37.597Z,1.40
2019-03-08T04:24:37.817Z,1.50
2019-03-08T04:25:38.041Z,1.40
2019-03-08T04:26:38.265Z,1.60
2019-03-08T04:27:38.487Z,1.40
2019-03-08T04:28:38.711Z,1.50
2019-03-08T04:29:38.936Z,1.70
2019-03-08T04:30:39.159Z,1.30
2019-03-08T04:31:39.382Z,1.60
2019-03-08T04:32:39.610Z,1.70
2019-03-08T04:33:39.877Z,1.50
2019-03-08T04:34:40.054Z,1.50
2019-03-08T04:35:40.282Z,1.30
2019-03-08T04:36:40.501Z,1.50
2019-03-08T04:37:40.725Z,1.60
2019-03-08T04:38:40.948Z,1.40
2019-03-08T04:39:41.175Z,1.50
2019-03-08T04:40:41.398Z,1.80
2019-03-08T04:41:41.619Z,1.60
2019-03-08T04:42:41.852Z,1.30
2019-03-08T04:43:42.068Z,1.60
2019-03-08T04:44:42.289Z,1.70
2019-03-08T04:45:42.517Z,1.40
2019-03-08T04:46:42.739Z,1.30
2019-03-08T04:47:42.980Z,1.60
2019-03-08T04:48:43.199Z,1.70
2019-03-08T04:49:43.420Z,1.60
2019-03-08T04:50:43.644Z,1.60
2019-03-08T04:51:43.866Z,1.60
2019-03-08T04:52:44.090Z,2.30
2019-03-08T04:53:44.315Z,1.50
2019-03-08T04:54:44.538Z,1.40
2019-03-08T04:55:44.762Z,1.40
2019-03-08T04:56:44.987Z,1.60
2019-03-08T04:57:45.211Z,1.40
2019-03-08T04:58:45.434Z,1.80
2019-03-08T04:59:45.651Z,1.60
2019-03-08T05:00:45.877Z,1.40
2019-03-08T05:01:46.099Z,1.40
2019-03-08T05:02:46.323Z,1.40
2019-03-08T05:03:46.549Z,1.70
2019-03-08T05:04:46.769Z,1.40
2019-03-08T05:05:46.994Z,1.40
2019-03-08T05:06:47.220Z,1.40
2019-03-08T05:07:47.444Z,1.50
2019-03-08T05:08:47.667Z,1.60
2019-03-08T05:09:47.888Z,1.50
2019-03-08T05:10:48.117Z,1.80
2019-03-08T05:11:48.336Z,1.40
2019-03-08T05:12:48.575Z,1.60
2019-03-08T05:13:48.788Z,1.40
2019-03-08T05:14:49.016Z,1.40
2019-03-08T05:15:49.237Z,1.60
2019-03-08T05:16:49.461Z,1.50
2019-03-08T05:17:49.684Z,1.40
2019-03-08T05:18:49.906Z,1.50
2019-03-08T05:19:50.129Z,2.00
2019-03-08T05:20:50.354Z,1.50
2019-03-08T05:21:50.577Z,1.70
2019-03-08T05:22:50.800Z,1.50
2019-03-08T05:23:51.025Z,1.50
2019-03-08T05:24:51.250Z,1.90
2019-03-08T05:25:51.472Z,1.60
2019-03-08T05:26:51.695Z,1.30
2019-03-08T05:27:51.923Z,1.50
2019-03-08T05:28:52.143Z,1.30
2019-03-08T05:29:52.370Z,1.50
2019-03-08T05:30:52.598Z,1.70
2019-03-08T05:31:52.818Z,1.60
2019-03-08T05:32:53.046Z,1.50
2019-03-08T05:33:53.265Z,1.40
2019-03-08T05:34:53.490Z,1.70
2019-03-08T05:35:53.715Z,1.60
2019-03-08T05:36:53.931Z,1.70
2019-03-08T05:37:54.156Z,1.80
2019-03-08T05:38:54.381Z,1.30
2019-03-08T05:39:54.604Z,1.30
2019-03-08T05:40:54.827Z,1.60
2019-03-08T05:41:55.050Z,1.50
2019-03-08T05:42:55.275Z,1.90
2019-03-08T05:43:55.500Z,1.90
2019-03-08T05:44:55.723Z,1.40
2019-03-08T05:45:55.949Z,1.40
2019-03-08T05:46:56.168Z,1.60
2019-03-08T05:47:56.398Z,1.50
2019-03-08T05:48:56.619Z,1.50
2019-03-08T05:49:56.840Z,1.80
2019-03-08T05:50:57.068Z,1.60
2019-03-08T05:51:57.288Z,1.40
2019-03-08T05:52:57.515Z,1.60
2019-03-08T05:53:57.739Z,1.40
2019-03-08T05:54:57.962Z,1.60
2019-03-08T05:55:58.186Z,1.50
2019-03-08T05:56:58.415Z,1.50
2019-03-08T05:57:58.638Z,1.30
2019-03-08T05:58:58.862Z,1.50
2019-03-08T05:59:59.086Z,1.50
2019-03-08T06:00:59.307Z,1.60
2019-03-08T06:01:59.532Z,1.60
2019-03-08T06:02:59.757Z,1.50
2019-03-08T06:03:59.982Z,1.60
2019-03-08T06:05:00.381Z,1.50
2019-03-08T06:06:00.432Z,2.00
2019-03-08T06:07:00.657Z,1.60
2019-03-08T06:08:00.880Z,1.60
2019-03-08T06:09:01.104Z,1.40
2019-03-08T06:10:01.326Z,1.60
2019-03-08T06:11:01.550Z,1.80
2019-03-08T06:12:01.779Z,1.60
2019-03-08T06:13:01.990Z,1.60
2019-03-08T06:14:02.216Z,1.50
2019-03-08T06:15:02.441Z,1.60
2019-03-08T06:16:02.667Z,1.50
2019-03-08T06:17:02.892Z,1.90
2019-03-08T06:18:03.111Z,1.60
2019-03-08T06:19:03.334Z,1.40
2019-03-08T06:20:03.559Z,1.40
2019-03-08T06:21:03.793Z,1.40
2019-03-08T06:22:04.007Z,1.60
2019-03-08T06:23:04.716Z,1.60
2019-03-08T06:24:04.455Z,1.50
2019-03-08T06:25:04.682Z,1.60
2019-03-08T06:26:04.905Z,1.80
2019-03-08T06:27:05.126Z,1.30
2019-03-08T06:28:05.355Z,1.70
2019-03-08T06:29:05.576Z,1.60
2019-03-08T06:30:05.801Z,1.50
2019-03-08T06:31:06.029Z,2.00
2019-03-08T06:32:06.249Z,1.70
2019-03-08T06:33:06.471Z,1.80
2019-03-08T06:34:06.695Z,1.80
2019-03-08T06:35:06.917Z,1.60
2019-03-08T06:36:07.139Z,2.10
2019-03-08T06:37:07.363Z,1.70
2019-03-08T06:38:07.589Z,1.80
2019-03-08T06:39:07.813Z,1.70
2019-03-08T06:40:08.036Z,1.70
2019-03-08T06:41:08.262Z,1.70
2019-03-08T06:42:08.505Z,1.70
2019-03-08T06:43:08.737Z,2.20
2019-03-08T06:44:08.955Z,1.90
2019-03-08T06:45:09.175Z,1.80
2019-03-08T06:46:09.400Z,1.70
2019-03-08T06:47:09.623Z,1.60
2019-03-08T06:48:09.849Z,1.70
2019-03-08T06:49:10.070Z,1.60
2019-03-08T06:50:10.294Z,1.60
2019-03-08T06:51:10.519Z,1.60
2019-03-08T06:52:10.743Z,1.60
2019-03-08T06:53:10.967Z,1.80
2019-03-08T06:54:11.189Z,1.70
2019-03-08T06:55:11.414Z,1.80
2019-03-08T06:56:11.641Z,1.70
2019-03-08T06:57:11.864Z,1.70
2019-03-08T06:58:12.085Z,1.90
2019-03-08T06:59:12.309Z,1.80
2019-03-08T07:00:12.554Z,1.70
2019-03-08T07:01:12.776Z,2.60
2019-03-08T07:02:12.996Z,1.70
2019-03-08T07:03:13.222Z,2.00
2019-03-08T07:04:13.443Z,2.00
2019-03-08T07:05:13.667Z,1.70
2019-03-08T07:06:13.893Z,2.00
2019-03-08T07:07:14.115Z,1.80
2019-03-08T07:08:14.341Z,1.60
2019-03-08T07:09:14.564Z,1.80
2019-03-08T07:10:14.787Z,2.30
2019-03-08T07:11:15.011Z,1.90
2019-03-08T07:12:15.235Z,1.70
2019-03-08T07:13:15.463Z,2.10
2019-03-08T07:14:15.686Z,2.20
2019-03-08T07:15:15.909Z,1.70
2019-03-08T07:16:16.132Z,1.70
2019-03-08T07:17:16.356Z,1.80
2019-03-08T07:18:16.580Z,1.80
2019-03-08T07:19:16.802Z,1.70
2019-03-08T07:20:17.027Z,1.90
2019-03-08T07:21:17.250Z,1.50
2019-03-08T07:22:17.475Z,1.50
2019-03-08T07:23:17.697Z,1.80
2019-03-08T07:24:17.924Z,1.90
2019-03-08T07:25:18.148Z,2.00
2019-03-08T07:26:18.371Z,1.70
2019-03-08T07:27:18.617Z,1.60
2019-03-08T07:28:18.822Z,1.80
2019-03-08T07:29:19.041Z,2.10
2019-03-08T07:30:20.025Z,1.60
2019-03-08T07:31:20.246Z,1.80
2019-03-08T07:32:19.651Z,1.70
2019-03-08T07:33:19.881Z,2.30
2019-03-08T07:34:20.106Z,1.80
2019-03-08T07:35:20.329Z,1.70
2019-03-08T07:36:20.553Z,1.80
2019-03-08T07:37:20.780Z,2.10
2019-03-08T07:38:21.005Z,1.60
2019-03-08T07:39:21.233Z,2.10
2019-03-08T07:40:21.455Z,1.60
2019-03-08T07:41:21.677Z,1.90
2019-03-08T07:42:21.901Z,1.80
2019-03-08T07:43:22.125Z,2.00
2019-03-08T07:44:22.346Z,1.90
2019-03-08T07:45:22.576Z,2.00
2019-03-08T07:46:22.806Z,2.30
2019-03-08T07:47:23.025Z,1.70
2019-03-08T07:48:23.249Z,2.20
2019-03-08T07:49:23.473Z,2.00
2019-03-08T07:50:23.697Z,1.60
2019-03-08T07:51:23.922Z,1.70
2019-03-08T07:52:24.149Z,1.70
2019-03-08T07:53:24.377Z,1.70
2019-03-08T07:54:24.598Z,2.20
2019-03-08T07:55:24.823Z,2.00
2019-03-08T07:56:25.046Z,2.00
2019-03-08T07:57:25.270Z,1.90
2019-03-08T07:58:25.492Z,1.70
2019-03-08T07:59:25.719Z,2.20
2019-03-08T08:00:25.946Z,2.10
2019-03-08T08:01:26.168Z,1.80
2019-03-08T08:02:26.391Z,2.30
2019-03-08T08:03:26.616Z,2.50
2019-03-08T08:04:26.836Z,2.10
2019-03-08T08:05:27.065Z,2.00
2019-03-08T08:06:27.287Z,1.70
2019-03-08T08:07:27.515Z,1.80
2019-03-08T08:08:27.735Z,1.60
2019-03-08T08:09:27.961Z,1.90
2019-03-08T08:10:28.182Z,2.00
2019-03-08T08:11:28.409Z,2.10
2019-03-08T08:12:28.639Z,2.10
2019-03-08T08:13:28.859Z,1.90
2019-03-08T08:14:29.081Z,1.90
2019-03-08T08:15:29.305Z,2.50
2019-03-08T08:16:29.528Z,2.00
2019-03-08T08:17:29.757Z,2.00
2019-03-08T08:18:29.981Z,2.00
2019-03-08T08:19:30.204Z,2.20
2019-03-08T08:20:30.433Z,2.70
2019-03-08T08:21:30.654Z,2.60
2019-03-08T08:22:30.877Z,2.20
2019-03-08T08:23:34.369Z,2.10
2019-03-08T08:24:31.327Z,1.90
2019-03-08T08:25:36.751Z,2.20
2019-03-08T08:26:31.775Z,3.50
2019-03-08T08:27:31.996Z,3.90
2019-03-08T08:28:32.224Z,2.50
2019-03-08T08:29:35.317Z,2.30
2019-03-08T08:30:32.673Z,3.40
2019-03-08T08:31:32.899Z,2.70
2019-03-08T08:32:33.123Z,5.80
2019-03-08T08:33:33.359Z,2.90
2019-03-08T08:34:33.564Z,2.20
2019-03-08T08:35:33.791Z,2.50
2019-03-08T08:36:34.016Z,3.10
2019-03-08T08:37:34.238Z,1.60
2019-03-08T08:38:34.462Z,1.70
2019-03-08T08:39:34.687Z,1.80
2019-03-08T08:40:34.913Z,2.00
2019-03-08T08:41:35.133Z,1.90
2019-03-08T08:42:35.357Z,1.60
2019-03-08T08:43:35.581Z,1.10
2019-03-08T08:44:35.808Z,2.30
2019-03-08T08:45:36.032Z,1.50
2019-03-08T08:46:36.257Z,1.30
2019-03-08T08:47:36.478Z,1.30
2019-03-08T08:48:36.706Z,1.30
2019-03-08T08:49:36.929Z,1.20
2019-03-08T08:50:37.154Z,1.30
2019-03-08T08:51:37.378Z,1.70
2019-03-08T08:52:37.603Z,1.30
2019-03-08T08:53:37.826Z,1.90
2019-03-08T08:54:38.054Z,1.80
2019-03-08T08:55:38.278Z,1.70
2019-03-08T08:56:38.502Z,2.20
2019-03-08T08:57:38.730Z,1.70
2019-03-08T08:58:38.966Z,1.50
2019-03-08T08:59:39.189Z,1.70
2019-03-08T09:00:39.415Z,1.50
2019-03-08T09:01:39.637Z,3.40
2019-03-08T09:02:39.864Z,4.40
2019-03-08T09:03:40.087Z,3.50
2019-03-08T09:04:40.311Z,2.30
2019-03-08T09:05:40.535Z,4.60
2019-03-08T09:06:40.762Z,3.40
2019-03-08T09:07:40.992Z,3.50
2019-03-08T09:08:41.232Z,3.10
2019-03-08T09:09:41.438Z,2.20
2019-03-08T09:10:41.665Z,2.40
2019-03-08T09:11:48.551Z,3.60
2019-03-08T09:12:42.114Z,3.30
2019-03-08T09:13:42.342Z,2.20
2019-03-08T09:14:42.574Z,3.40
2019-03-08T09:15:42.790Z,3.10
2019-03-08T09:16:43.015Z,2.30
2019-03-08T09:17:43.239Z,3.60
2019-03-08T09:18:43.464Z,2.70
2019-03-08T09:19:43.723Z,5.30
2019-03-08T09:20:43.945Z,3.90
2019-03-08T09:21:44.169Z,1.80
2019-03-08T09:22:44.397Z,1.80
2019-03-08T09:23:44.622Z,2.30
2019-03-08T09:24:44.848Z,3.60
2019-03-08T09:25:45.074Z,3.10
2019-03-08T09:26:45.298Z,2.20
2019-03-08T09:27:45.523Z,3.60
2019-03-08T09:28:45.751Z,2.50
2019-03-08T09:29:45.973Z,3.50
2019-03-08T09:30:46.195Z,3.50
2019-03-08T09:31:46.420Z,2.60
2019-03-08T09:32:46.652Z,2.70
2019-03-08T09:33:46.875Z,3.30
2019-03-08T09:34:47.101Z,2.40
2019-03-08T09:35:47.326Z,1.70
2019-03-08T09:36:47.555Z,3.00
2019-03-08T09:37:47.778Z,3.00
2019-03-08T09:38:48.002Z,2.40
2019-03-08T09:39:48.226Z,3.10
2019-03-08T09:40:48.450Z,1.30
2019-03-08T09:41:48.676Z,1.80
2019-03-08T09:42:48.900Z,3.10
2019-03-08T09:43:49.131Z,3.30
2019-03-08T09:44:49.351Z,4.40
2019-03-08T09:45:49.575Z,3.20
2019-03-08T09:46:49.801Z,2.00
2019-03-08T09:47:50.026Z,3.40
2019-03-08T09:48:50.251Z,2.60
2019-03-08T09:49:50.477Z,3.70
2019-03-08T09:50:50.701Z,3.70
2019-03-08T09:51:50.927Z,2.30
2019-03-08T09:52:51.152Z,2.50
2019-03-08T09:53:51.378Z,2.40
2019-03-08T09:54:51.606Z,1.90
2019-03-08T09:55:51.828Z,2.90
2019-03-08T09:56:52.052Z,2.60
2019-03-08T09:57:52.279Z,2.50
2019-03-08T09:58:52.501Z,2.20
2019-03-08T09:59:52.724Z,2.30
2019-03-08T10:00:52.950Z,1.90
2019-03-08T10:01:53.177Z,2.20
2019-03-08T10:02:53.403Z,1.40
2019-03-08T10:03:53.630Z,1.60
2019-03-08T10:04:53.859Z,2.40
2019-03-08T10:05:54.082Z,2.30
2019-03-08T10:06:54.309Z,2.50
2019-03-08T10:07:54.535Z,1.40
2019-03-08T10:08:56.363Z,2.00
2019-03-08T10:09:54.985Z,2.00
2019-03-08T10:10:55.210Z,2.20
2019-03-08T10:11:55.438Z,2.40
2019-03-08T10:12:55.661Z,1.90
2019-03-08T10:13:55.886Z,2.10
2019-03-08T10:14:56.111Z,1.80
2019-03-08T10:15:56.337Z,2.10
2019-03-08T10:16:56.565Z,1.70
2019-03-08T10:17:56.789Z,2.10
2019-03-08T10:18:57.015Z,2.00
2019-03-08T10:19:57.241Z,2.00
2019-03-08T10:20:57.466Z,2.00
2019-03-08T10:21:57.695Z,2.30
2019-03-08T10:22:57.920Z,2.00
2019-03-08T10:23:58.145Z,2.30
2019-03-08T10:24:58.372Z,2.90
2019-03-08T10:25:58.597Z,2.80
2019-03-08T10:26:58.822Z,2.40
2019-03-08T10:27:59.046Z,2.50
2019-03-08T10:28:59.274Z,2.20
2019-03-08T10:29:59.502Z,2.50
2019-03-08T10:30:59.725Z,2.80
2019-03-08T10:31:59.948Z,2.50
2019-03-08T10:33:00.174Z,2.20
2019-03-08T10:34:00.400Z,3.20
2019-03-08T10:35:00.623Z,2.50
2019-03-08T10:36:00.849Z,2.40
2019-03-08T10:37:01.082Z,2.80
2019-03-08T10:38:01.303Z,2.40
2019-03-08T10:39:01.529Z,3.00
2019-03-08T10:40:01.757Z,2.90
2019-03-08T10:41:01.983Z,2.50
2019-03-08T10:42:02.213Z,2.90
2019-03-08T10:43:02.432Z,2.30
2019-03-08T10:44:08.865Z,2.70
2019-03-08T10:45:02.888Z,2.10
2019-03-08T10:46:03.111Z,3.00
2019-03-08T10:47:03.339Z,2.60
2019-03-08T10:48:03.563Z,2.40
2019-03-08T10:49:03.802Z,3.20
2019-03-08T10:50:04.012Z,3.30
2019-03-08T10:51:04.238Z,2.40
2019-03-08T10:52:04.465Z,2.70
2019-03-08T10:53:04.692Z,3.10
2019-03-08T10:54:04.915Z,3.30
2019-03-08T10:55:05.142Z,3.20
2019-03-08T10:56:05.378Z,3.00
2019-03-08T10:57:05.595Z,3.00
2019-03-08T10:58:05.817Z,2.40
2019-03-08T10:59:06.042Z,3.10
2019-03-08T11:00:06.275Z,3.40
2019-03-08T11:01:06.492Z,3.60
2019-03-08T11:02:06.719Z,3.40
2019-03-08T11:03:06.945Z,3.40
2019-03-08T11:04:07.173Z,2.70
2019-03-08T11:05:07.397Z,3.30
2019-03-08T11:06:07.626Z,3.10
2019-03-08T11:07:07.848Z,3.30
2019-03-08T11:08:09.036Z,3.10
2019-03-08T11:09:08.303Z,3.10
2019-03-08T11:10:08.529Z,3.30
2019-03-08T11:11:08.753Z,3.30
2019-03-08T11:12:08.980Z,3.30
2019-03-08T11:13:09.208Z,3.20
2019-03-08T11:14:09.441Z,3.60
2019-03-08T11:15:09.658Z,3.50
2019-03-08T11:16:09.884Z,3.30
2019-03-08T11:17:10.112Z,3.20
2019-03-08T11:18:10.341Z,3.20
2019-03-08T11:19:10.576Z,2.80
2019-03-08T11:20:10.797Z,3.40
2019-03-08T11:21:11.020Z,2.90
2019-03-08T11:22:11.247Z,3.70
2019-03-08T11:23:11.472Z,3.10
2019-03-08T11:24:11.700Z,2.90
2019-03-08T11:25:11.927Z,3.30
2019-03-08T11:26:12.153Z,3.00
2019-03-08T11:27:12.380Z,3.50
2019-03-08T11:28:20.774Z,3.20
2019-03-08T11:29:12.832Z,3.30
2019-03-08T11:30:13.475Z,3.50
2019-03-08T11:31:13.286Z,3.60
2019-03-08T11:32:22.524Z,3.20
2019-03-08T11:33:13.738Z,3.10
2019-03-08T11:34:13.965Z,3.10
2019-03-08T11:35:14.189Z,3.30
2019-03-08T11:36:14.418Z,2.90
2019-03-08T11:37:14.644Z,3.40
2019-03-08T11:38:14.869Z,2.90
2019-03-08T11:39:15.095Z,3.50
2019-03-08T11:40:15.323Z,2.90
2019-03-08T11:41:15.547Z,3.10
2019-03-08T11:42:15.775Z,3.00
2019-03-08T11:43:15.997Z,3.20
2019-03-08T11:44:16.220Z,3.50
2019-03-08T11:45:16.448Z,3.30
2019-03-08T11:46:16.675Z,2.90
2019-03-08T11:47:16.903Z,2.60
2019-03-08T11:48:17.241Z,3.10
2019-03-08T11:49:17.357Z,3.60
2019-03-08T11:50:17.603Z,3.10
2019-03-08T11:51:17.809Z,3.00
2019-03-08T11:52:18.035Z,3.10
2019-03-08T11:53:18.262Z,3.00
2019-03-08T11:54:18.488Z,2.60
2019-03-08T11:55:18.716Z,3.40
2019-03-08T11:56:18.944Z,3.40
2019-03-08T11:57:19.169Z,3.00
2019-03-08T11:58:19.396Z,3.00
2019-03-08T11:59:19.633Z,3.00
2019-03-08T12:01:20.079Z,2.90
2019-03-08T12:02:20.307Z,3.30
2019-03-08T12:03:20.531Z,2.80
2019-03-08T12:04:20.761Z,2.80
2019-03-08T12:05:20.987Z,3.70
2019-03-08T12:06:21.213Z,3.10
2019-03-08T12:07:21.440Z,3.20
2019-03-08T12:08:21.665Z,2.90
2019-03-08T12:09:21.899Z,2.80
2019-03-08T12:10:22.119Z,2.90
2019-03-08T12:11:22.343Z,2.80
2019-03-08T12:12:22.574Z,3.00
2019-03-08T12:13:22.796Z,3.10
2019-03-08T12:14:23.030Z,3.40
2019-03-08T12:15:23.252Z,3.30
2019-03-08T12:16:23.495Z,2.90
2019-03-08T12:17:23.694Z,2.50
2019-03-08T12:18:23.928Z,2.50
2019-03-08T12:19:24.159Z,3.20
2019-03-08T12:20:24.379Z,3.10
2019-03-08T12:21:24.629Z,2.50
2019-03-08T12:22:24.862Z,2.30
2019-03-08T12:23:25.088Z,2.80
2019-03-08T12:24:25.311Z,2.50
2019-03-08T12:25:25.536Z,2.50
2019-03-08T12:26:25.764Z,2.30
2019-03-08T12:27:25.989Z,2.30
2019-03-08T12:28:26.272Z,2.90
2019-03-08T12:29:26.446Z,2.40
2019-03-08T12:30:26.678Z,3.00
2019-03-08T12:31:26.899Z,2.70
2019-03-08T12:32:27.126Z,2.50
2019-03-08T12:33:27.351Z,2.90
2019-03-08T12:34:27.571Z,2.60
2019-03-08T12:35:27.798Z,2.70
2019-03-08T12:36:28.022Z,3.00
2019-03-08T12:37:28.251Z,2.60
2019-03-08T12:38:28.478Z,2.70
2019-03-08T12:39:28.703Z,2.20
2019-03-08T12:40:28.933Z,2.60
2019-03-08T12:41:29.156Z,2.30
2019-03-08T12:42:29.382Z,2.80
2019-03-08T12:43:29.611Z,2.90
2019-03-08T12:44:29.834Z,3.10
2019-03-08T12:45:30.061Z,3.20
2019-03-08T12:46:30.285Z,3.20
2019-03-08T12:47:30.517Z,2.40
2019-03-08T12:48:30.737Z,3.40
2019-03-08T12:49:30.966Z,2.50
2019-03-08T12:50:31.194Z,3.10
2019-03-08T12:51:31.418Z,3.00
2019-03-08T12:52:31.647Z,3.00
2019-03-08T12:53:31.871Z,2.40
2019-03-08T12:54:32.097Z,2.80
2019-03-08T12:55:32.323Z,2.80
2019-03-08T12:56:32.551Z,3.00
2019-03-08T12:57:32.777Z,2.40
2019-03-08T12:58:33.021Z,2.60
2019-03-08T12:59:33.248Z,2.80
2019-03-08T13:00:33.472Z,2.90
2019-03-08T13:01:33.701Z,2.90
2019-03-08T13:02:33.927Z,2.70
2019-03-08T13:03:34.156Z,2.60
2019-03-08T13:04:34.380Z,2.50
2019-03-08T13:05:34.608Z,2.90
2019-03-08T13:06:34.834Z,2.60
2019-03-08T13:07:35.060Z,2.70
2019-03-08T13:08:35.286Z,2.60
2019-03-08T13:09:35.513Z,2.40
2019-03-08T13:10:35.739Z,2.70
2019-03-08T13:11:35.966Z,2.40
2019-03-08T13:12:36.193Z,2.30
2019-03-08T13:13:36.425Z,2.50
2019-03-08T13:14:36.649Z,2.20
2019-03-08T13:15:36.874Z,2.40
2019-03-08T13:16:37.100Z,2.20
2019-03-08T13:17:37.328Z,2.40
2019-03-08T13:18:37.553Z,2.20
2019-03-08T13:19:37.788Z,2.60
2019-03-08T13:20:38.015Z,2.30
2019-03-08T13:21:38.241Z,2.50
2019-03-08T13:22:38.466Z,2.40